createdAt,value
2023-03-29T00:04:36.000Z,3.4
2023-03-29T00:09:42.087Z,3.4
2023-03-29T00:14:48.188Z,3.3
2023-03-29T00:19:54.283Z,3.3
2023-03-29T00:25:00.382Z,3.4
2023-03-29T00:30:06.476Z,3.5
2023-03-29T00:35:12.573Z,3.5
2023-03-29T00:40:18.666Z,3.5
2023-03-29T00:45:24.772Z,3.6
2023-03-29T00:50:30.869Z,3.6
2023-03-29T00:55:35.992Z,3.6
2023-03-29T01:00:42.100Z,3.6
2023-03-29T01:05:48.189Z,3.5
2023-03-29T01:10:54.282Z,3.5
2023-03-29T01:16:00.389Z,3.5
2023-03-29T01:21:06.491Z,3.6
2023-03-29T01:26:12.589Z,3.6
2023-03-29T01:31:18.678Z,3.6
2023-03-29T01:36:24.782Z,3.6
2023-03-29T01:41:30.871Z,3.6
2023-03-29T01:46:36.975Z,3.6
2023-03-29T01:51:43.070Z,3.6
2023-03-29T01:56:49.181Z,3.6
2023-03-29T02:01:54.288Z,3.6
2023-03-29T02:07:00.386Z,3.7
2023-03-29T02:12:06.505Z,3.7
2023-03-29T02:17:12.574Z,3.7
2023-03-29T02:22:18.675Z,3.7
2023-03-29T02:27:24.780Z,3.7
2023-03-29T02:32:30.887Z,3.7
2023-03-29T02:37:36.965Z,3.7
2023-03-29T02:42:43.072Z,3.7
2023-03-29T02:47:49.175Z,3.7
2023-03-29T02:52:55.287Z,3.7
2023-03-29T02:58:01.390Z,3.7
2023-03-29T03:03:07.498Z,3.7
2023-03-29T03:08:12.595Z,3.7
2023-03-29T03:13:18.681Z,3.7
2023-03-29T03:18:24.790Z,3.7
2023-03-29T03:23:30.872Z,3.7
2023-03-29T03:28:36.999Z,3.7
2023-03-29T03:33:43.092Z,3.7
2023-03-29T03:38:49.188Z,3.7
2023-03-29T03:43:55.282Z,3.7
2023-03-29T03:49:01.407Z,3.8
2023-03-29T03:54:07.501Z,3.9
2023-03-29T03:59:13.596Z,4
2023-03-29T04:04:19.679Z,4
2023-03-29T04:09:25.770Z,4.1
2023-03-29T04:14:31.863Z,4.1
2023-03-29T04:19:36.990Z,4.1
2023-03-29T04:24:43.090Z,4.1
2023-03-29T04:29:49.180Z,4.2
2023-03-29T04:34:55.272Z,4.2
2023-03-29T04:40:01.366Z,4.1
2023-03-29T04:45:07.533Z,4.1
2023-03-29T04:50:13.579Z,4.1
2023-03-29T04:55:19.696Z,4.1
2023-03-29T05:00:25.768Z,4.2
2023-03-29T05:05:31.879Z,4.3
2023-03-29T05:15:44.060Z,4.3
2023-03-29T05:20:50.209Z,4.4
2023-03-29T05:25:55.290Z,4.5
2023-03-29T05:31:01.388Z,4.5
2023-03-29T05:36:07.527Z,4.5
2023-03-29T05:41:13.583Z,4.6
2023-03-29T05:46:19.679Z,4.6
2023-03-29T05:51:25.772Z,4.7
2023-03-29T05:56:31.861Z,4.8
2023-03-29T06:01:37.995Z,4.9
2023-03-29T06:06:44.069Z,4.9
2023-03-29T06:11:50.181Z,4.9
2023-03-29T06:16:56.261Z,5
2023-03-29T06:22:02.369Z,5
2023-03-29T06:27:08.461Z,5.1
2023-03-29T06:32:13.570Z,5.2
2023-03-29T06:37:19.670Z,5.3
2023-03-29T06:42:25.782Z,5.5
2023-03-29T06:47:31.886Z,5.7
2023-03-29T06:52:37.997Z,5.8
2023-03-29T06:57:44.072Z,5.9
2023-03-29T07:02:50.155Z,5.9
2023-03-29T07:07:56.284Z,6.1
2023-03-29T07:13:02.373Z,6.4
2023-03-29T07:18:08.469Z,6.5
2023-03-29T07:23:14.550Z,6.6
2023-03-29T07:28:20.674Z,6.6
2023-03-29T07:33:26.746Z,6.7
2023-03-29T07:38:31.905Z,6.9
2023-03-29T07:43:37.992Z,7.1
2023-03-29T07:48:44.111Z,7.2
2023-03-29T07:53:50.152Z,7.2
2023-03-29T07:58:56.265Z,7.4
2023-03-29T08:04:02.393Z,7.5
2023-03-29T08:09:08.440Z,7.6
2023-03-29T08:14:14.547Z,7.6
2023-03-29T08:19:20.657Z,7.7
2023-03-29T08:24:26.753Z,7.8
2023-03-29T08:29:32.833Z,7.8
2023-03-29T08:34:38.946Z,7.8
2023-03-29T08:39:45.029Z,7.8
2023-03-29T08:44:50.153Z,8
2023-03-29T08:49:56.275Z,8.4
2023-03-29T08:55:02.347Z,8.5
2023-03-29T09:00:08.428Z,8.8
2023-03-29T09:05:14.528Z,8.9
2023-03-29T09:10:20.631Z,8.7
2023-03-29T09:15:26.732Z,8.8
2023-03-29T09:20:32.818Z,9
2023-03-29T09:25:38.924Z,9.4
2023-03-29T09:30:45.014Z,9.5
2023-03-29T09:35:51.111Z,9.6
2023-03-29T09:40:57.225Z,9.8
2023-03-29T09:46:03.311Z,10.1
2023-03-29T09:51:08.422Z,10
2023-03-29T09:56:14.515Z,10
2023-03-29T10:01:20.656Z,10.1
2023-03-29T10:06:26.715Z,9.9
2023-03-29T10:11:32.813Z,9.9
2023-03-29T10:16:37.940Z,10.2
2023-03-29T10:21:44.035Z,10.3
2023-03-29T10:26:50.134Z,10.5
2023-03-29T10:31:56.280Z,10.6
2023-03-29T10:37:02.337Z,11.1
2023-03-29T10:42:08.427Z,11.5
2023-03-29T10:47:14.511Z,11.7
2023-03-29T10:52:20.596Z,11.7
2023-03-29T10:57:26.714Z,12
2023-03-29T11:02:32.799Z,12.1
2023-03-29T11:07:38.894Z,13.7
2023-03-29T11:12:44.999Z,15.2
2023-03-29T11:17:51.108Z,15
2023-03-29T11:22:56.198Z,13.8
2023-03-29T11:28:02.285Z,13.2
2023-03-29T11:33:08.460Z,12.6
2023-03-29T11:38:14.496Z,12.2
2023-03-29T11:43:20.579Z,12.2
2023-03-29T11:48:26.696Z,12
2023-03-29T11:53:32.802Z,12
2023-03-29T11:58:38.878Z,12
2023-03-29T12:03:44.993Z,12.2
2023-03-29T12:08:51.071Z,12.7
2023-03-29T12:13:57.169Z,13.2
2023-03-29T12:19:03.270Z,13.1
2023-03-29T12:24:09.432Z,14
2023-03-29T12:29:14.475Z,15.9
2023-03-29T12:34:20.594Z,16
2023-03-29T12:39:26.666Z,14.9
2023-03-29T12:44:32.770Z,14.3
2023-03-29T12:49:38.861Z,14.3
2023-03-29T12:54:44.998Z,14.3
2023-03-29T12:59:51.069Z,14.3
2023-03-29T13:04:57.161Z,14.3
2023-03-29T13:10:03.298Z,14.4
2023-03-29T13:15:09.337Z,14.4
2023-03-29T13:20:15.415Z,14.4
2023-03-29T13:25:21.525Z,14.2
2023-03-29T13:30:27.662Z,14.5
2023-03-29T13:35:32.721Z,14.7
2023-03-29T13:40:38.833Z,15.5
2023-03-29T13:45:44.928Z,15.6
2023-03-29T13:50:51.006Z,15.3
2023-03-29T13:55:57.101Z,15.4
2023-03-29T14:01:03.224Z,15.3
2023-03-29T14:06:09.294Z,15.2
2023-03-29T14:11:15.409Z,15.1
2023-03-29T14:16:21.487Z,14.9
2023-03-29T14:21:27.580Z,14.9
2023-03-29T14:26:33.689Z,14.8
2023-03-29T14:31:39.790Z,14.8
2023-03-29T14:36:45.874Z,14.8
2023-03-29T14:41:50.974Z,15.1
2023-03-29T14:46:57.076Z,15.7
2023-03-29T14:52:03.325Z,16.3
2023-03-29T14:57:09.273Z,15.5
2023-03-29T15:02:15.362Z,15.2
2023-03-29T15:07:21.446Z,14.8
2023-03-29T15:12:27.542Z,14.4
2023-03-29T15:17:33.653Z,14.2
2023-03-29T15:22:39.739Z,14.1
2023-03-29T15:27:45.863Z,13.8
2023-03-29T15:32:51.932Z,13.6
2023-03-29T15:37:58.027Z,13.3
2023-03-29T15:43:04.143Z,12.8
2023-03-29T15:48:09.224Z,12.6
2023-03-29T15:53:15.337Z,12.7
2023-03-29T15:58:21.446Z,12.5
2023-03-29T16:03:27.561Z,12.3
2023-03-29T16:08:33.647Z,12.3
2023-03-29T16:13:39.725Z,12.4
2023-03-29T16:18:45.810Z,12.5
2023-03-29T16:23:51.907Z,12.6
2023-03-29T16:28:58.029Z,12.6
2023-03-29T16:34:04.103Z,12.7
2023-03-29T16:39:10.199Z,12.6
2023-03-29T16:44:16.321Z,12.5
2023-03-29T16:49:22.398Z,12.5
2023-03-29T16:54:27.514Z,12.5
2023-03-29T16:59:33.614Z,12.5
2023-03-29T17:04:39.708Z,12.4
2023-03-29T17:09:45.811Z,12.2
2023-03-29T17:14:51.907Z,12.1
2023-03-29T17:19:57.981Z,11.9
2023-03-29T17:25:04.105Z,11.7
2023-03-29T17:30:10.175Z,11.4
2023-03-29T17:35:16.295Z,11.1
2023-03-29T17:40:22.395Z,11
2023-03-29T17:45:28.478Z,11
2023-03-29T17:50:34.625Z,11
2023-03-29T17:55:40.696Z,10.9
2023-03-29T18:00:45.779Z,10.9
2023-03-29T18:05:51.881Z,10.9
2023-03-29T18:10:57.983Z,11.1
2023-03-29T18:16:04.058Z,11.1
2023-03-29T18:21:10.182Z,11.1
2023-03-29T18:26:16.267Z,11.1
2023-03-29T18:31:22.371Z,11
2023-03-29T18:36:28.495Z,11
2023-03-29T18:41:34.572Z,10.9
2023-03-29T18:46:40.668Z,10.8
2023-03-29T18:51:46.764Z,10.7
2023-03-29T18:56:52.863Z,10.9
2023-03-29T19:01:58.945Z,11
2023-03-29T19:07:04.118Z,10.9
2023-03-29T19:12:10.192Z,10.8
2023-03-29T19:17:16.247Z,10.5
2023-03-29T19:22:22.403Z,10.4
2023-03-29T19:27:28.512Z,10.2
2023-03-29T19:32:34.543Z,10.1
2023-03-29T19:37:40.656Z,9.9
2023-03-29T19:42:46.785Z,9.8
2023-03-29T19:47:52.828Z,9.6
2023-03-29T19:52:58.942Z,9.5
2023-03-29T19:58:05.025Z,9.7
2023-03-29T20:03:11.131Z,10.1
2023-03-29T20:08:17.225Z,10.4
2023-03-29T20:13:22.337Z,10.4
2023-03-29T20:18:28.438Z,10.3
2023-03-29T20:23:34.531Z,10.4
2023-03-29T20:28:40.615Z,10.3
2023-03-29T20:33:46.735Z,10.2
2023-03-29T20:38:52.826Z,10.2
2023-03-29T20:43:58.956Z,10.2
2023-03-29T20:49:05.005Z,10.1
2023-03-29T20:54:11.111Z,10
2023-03-29T20:59:17.206Z,9.9
2023-03-29T21:04:23.311Z,9.8
2023-03-29T21:09:29.411Z,9.8
2023-03-29T21:14:35.576Z,9.6
2023-03-29T21:19:40.612Z,9.6
2023-03-29T21:24:46.715Z,9.5
2023-03-29T21:29:52.811Z,9.5
2023-03-29T21:34:58.886Z,9.5
2023-03-29T21:40:05.062Z,9.5
2023-03-29T21:45:11.103Z,9.6
2023-03-29T21:50:17.212Z,9.8
2023-03-29T21:55:23.333Z,9.9
2023-03-29T22:00:29.394Z,10.1
2023-03-29T22:05:35.556Z,10.1
2023-03-29T22:10:41.677Z,9.9
2023-03-29T22:15:47.691Z,9.8
2023-03-29T22:20:53.780Z,9.7
2023-03-29T22:25:58.966Z,9.8
2023-03-29T22:31:05.009Z,10
2023-03-29T22:36:11.069Z,10
2023-03-29T22:41:17.185Z,9.9
2023-03-29T22:46:23.280Z,9.9
2023-03-29T22:51:29.370Z,10.1
2023-03-29T22:56:35.458Z,10.1
2023-03-29T23:01:41.557Z,10.1
2023-03-29T23:06:47.657Z,10
2023-03-29T23:11:53.742Z,10
2023-03-29T23:16:59.856Z,10.4
2023-03-29T23:22:05.946Z,10.5
2023-03-29T23:27:12.044Z,10.4
2023-03-29T23:32:17.168Z,10.4
2023-03-29T23:37:23.267Z,10.4
2023-03-29T23:42:29.339Z,10.4
2023-03-29T23:47:35.447Z,10.4
2023-03-29T23:52:41.538Z,10.5
2023-03-29T23:57:47.663Z,10.7
